createdAt,value
2019-01-02T00:05:35.387Z,976.3
2019-01-02T00:15:38.875Z,976.2
2019-01-02T00:25:43.145Z,975.7
2019-01-02T00:35:46.815Z,976
2019-01-02T00:45:50.304Z,975.9
2019-01-02T00:55:53.841Z,975.9
2019-01-02T01:05:57.294Z,976.1
2019-01-02T01:16:00.742Z,976.7
2019-01-02T01:26:04.852Z,976.3
2019-01-02T01:36:08.482Z,976.8
2019-01-02T01:46:14.454Z,976.6
2019-01-02T01:56:18.086Z,976.9
2019-01-02T02:06:21.549Z,977.1
2019-01-02T02:16:24.967Z,976.5
2019-01-02T02:26:28.418Z,976.5
2019-01-02T02:36:32.880Z,976.7
2019-01-02T02:46:36.611Z,976.7
2019-01-02T02:56:40.692Z,976.8
2019-01-02T03:06:49.194Z,976.9
2019-01-02T03:16:53.869Z,976.9
2019-01-02T03:26:57.679Z,976.8
2019-01-02T03:37:01.089Z,976.7
2019-01-02T03:47:04.491Z,976.9
2019-01-02T03:57:07.916Z,977.2
2019-01-02T04:07:11.350Z,977.6
2019-01-02T04:17:14.761Z,977.6
2019-01-02T04:27:18.245Z,977.7
2019-01-02T04:37:21.657Z,978
2019-01-02T04:47:25.106Z,978.2
2019-01-02T04:57:28.531Z,978.3
2019-01-02T05:07:31.922Z,978.3
2019-01-02T05:17:35.343Z,978.7
2019-01-02T05:27:38.799Z,978.7
2019-01-02T05:37:42.193Z,979
2019-01-02T05:47:45.625Z,979.1
2019-01-02T05:57:49.055Z,979.2
2019-01-02T06:07:52.501Z,979.2
2019-01-02T06:17:55.891Z,979.5
2019-01-02T06:27:59.315Z,979.3
2019-01-02T06:38:02.715Z,979.3
2019-01-02T06:48:06.146Z,979.4
2019-01-02T06:58:09.588Z,979.7
2019-01-02T07:08:12.986Z,979.9
2019-01-02T07:18:16.410Z,979.8
2019-01-02T07:28:19.854Z,980.2
2019-01-02T07:38:23.286Z,980
2019-01-02T07:48:27.598Z,980.1
2019-01-02T07:58:31.018Z,980
2019-01-02T08:08:34.433Z,980.1
2019-01-02T08:18:37.860Z,980.3
2019-01-02T08:28:41.269Z,980.2
2019-01-02T08:38:44.748Z,980.1
2019-01-02T08:48:48.190Z,980.2
2019-01-02T08:58:52.602Z,979.9
2019-01-02T09:08:55.994Z,979.9
2019-01-02T09:18:59.437Z,979.8
2019-01-02T09:29:02.822Z,980
2019-01-02T09:39:06.261Z,980.3
2019-01-02T09:49:09.726Z,980
2019-01-02T09:59:13.123Z,979.7
2019-01-02T10:09:17.178Z,977.9
2019-01-02T10:19:20.618Z,978.5
2019-01-02T10:29:24.050Z,979.1
2019-01-02T10:39:27.549Z,979.6
2019-01-02T10:49:30.944Z,978.7
2019-01-02T10:59:34.361Z,978.4
2019-01-02T11:09:37.798Z,978.5
2019-01-02T11:19:41.192Z,978.5
2019-01-02T11:29:44.610Z,977.9
2019-01-02T11:39:48.022Z,978.3
2019-01-02T11:49:51.447Z,978.2
2019-01-02T11:59:54.883Z,978.2
2019-01-02T12:09:59.315Z,978.1
2019-01-02T12:20:02.726Z,978
2019-01-02T12:30:06.152Z,978.4
2019-01-02T12:40:09.590Z,977.9
2019-01-02T12:50:13.017Z,978
2019-01-02T13:00:16.463Z,978
2019-01-02T13:10:19.891Z,977.9
2019-01-02T13:20:23.305Z,978.2
2019-01-02T13:30:26.737Z,977.6
2019-01-02T13:40:30.189Z,977.6
2019-01-02T13:50:34.641Z,977.5
2019-01-02T14:00:38.124Z,977.4
2019-01-02T14:10:41.570Z,977.2
2019-01-02T14:20:45.007Z,977.8
2019-01-02T14:30:48.442Z,977.8
2019-01-02T14:40:51.877Z,978
2019-01-02T14:50:55.294Z,978.2
2019-01-02T15:00:58.727Z,978.6
2019-01-02T15:11:08.570Z,978.7
2019-01-02T15:21:11.986Z,978.7
2019-01-02T15:31:15.397Z,978.9
2019-01-02T15:41:18.822Z,979.3
2019-01-02T15:51:23.353Z,979.4
2019-01-02T16:01:26.756Z,979.7
2019-01-02T16:11:30.172Z,980.1
2019-01-02T16:21:33.574Z,980.7
2019-01-02T16:31:36.991Z,980.5
2019-01-02T16:41:40.413Z,980.6
2019-01-02T16:51:43.809Z,981
2019-01-02T17:01:47.255Z,981.1
2019-01-02T17:11:50.681Z,981.2
2019-01-02T17:21:54.118Z,981.5
2019-01-02T17:31:57.536Z,981.5
2019-01-02T17:42:00.969Z,981.6
2019-01-02T17:52:04.361Z,981.9
2019-01-02T18:02:07.788Z,982.4
2019-01-02T18:12:11.224Z,982.2
2019-01-02T18:22:14.655Z,982.3
2019-01-02T18:32:18.062Z,982.6
2019-01-02T18:42:21.493Z,982.9
2019-01-02T18:52:24.943Z,982.9
2019-01-02T19:02:28.364Z,983.1
2019-01-02T19:12:31.800Z,983.1
2019-01-02T19:22:35.214Z,983.5
2019-01-02T19:32:38.635Z,983.6
2019-01-02T19:42:42.043Z,983.7
2019-01-02T19:52:45.438Z,976.1
2019-01-02T20:02:48.867Z,976.3
2019-01-02T20:12:52.289Z,976.4
2019-01-02T20:22:56.716Z,976.4
2019-01-02T20:33:00.134Z,976.7
2019-01-02T20:43:03.541Z,977.1
2019-01-02T20:53:06.978Z,977.1
2019-01-02T21:03:10.419Z,977.4
2019-01-02T21:13:13.866Z,977.6
2019-01-02T21:23:17.302Z,977.8
2019-01-02T21:33:20.745Z,977.8
2019-01-02T21:43:24.146Z,977.9
2019-01-02T21:53:27.586Z,977.8
2019-01-02T22:03:30.990Z,977.8
2019-01-02T22:13:34.375Z,977.7
2019-01-02T22:23:37.803Z,977.6
2019-01-02T22:33:41.235Z,977.7
2019-01-02T22:43:44.656Z,977.8
2019-01-02T22:53:48.079Z,978
2019-01-02T23:03:51.484Z,978.2
2019-01-02T23:13:54.913Z,978.3
2019-01-02T23:23:58.341Z,978.5
2019-01-02T23:34:01.787Z,978.5
2019-01-02T23:44:05.220Z,978.6
2019-01-02T23:54:08.613Z,978.8
